createdAt,value
2023-03-21T17:56:23.087Z,100535.75
2023-03-21T18:01:28.293Z,100529.84
2023-03-21T18:06:34.109Z,100529.00
2023-03-21T18:11:42.066Z,100532.09
2023-03-21T18:16:47.378Z,100522.72
2023-03-21T18:21:52.653Z,100525.38
2023-03-21T18:27:00.502Z,100518.34
2023-03-21T18:32:07.906Z,100526.88
2023-03-21T18:37:13.656Z,100539.72
2023-03-21T18:42:23.904Z,100542.16
2023-03-21T18:47:29.370Z,100541.97
2023-03-21T18:52:37.758Z,100557.28
2023-03-21T18:57:45.868Z,100535.66
2023-03-21T19:03:04.012Z,100552.84
2023-03-21T19:08:15.424Z,100543.38
2023-03-21T19:13:23.270Z,100539.06
2023-03-21T19:24:29.291Z,100544.28
2023-03-21T19:29:31.756Z,100546.03
2023-03-21T19:34:38.058Z,100534.03
2023-03-21T19:39:44.606Z,100516.94
2023-03-21T19:44:53.774Z,100515.31
2023-03-21T19:51:26.418Z,100524.09
2023-03-21T19:55:26.421Z,100529.31
2023-03-21T20:00:35.570Z,100531.91
2023-03-21T20:05:41.189Z,100541.44
2023-03-21T20:10:48.756Z,100529.41
2023-03-21T20:16:00.428Z,100533.84
2023-03-21T20:21:16.925Z,100531.41
2023-03-21T20:26:23.291Z,100530.69
2023-03-21T20:31:31.351Z,100530.09
2023-03-21T20:36:40.429Z,100521.88
2023-03-21T20:41:46.336Z,100521.38
2023-03-21T20:46:55.488Z,100526.91
2023-03-21T20:57:27.155Z,100526.50
2023-03-21T21:02:35.015Z,100524.81
2023-03-21T21:07:40.178Z,100512.88
2023-03-21T21:12:46.483Z,100516.28
2023-03-21T21:18:07.890Z,100521.28
2023-03-21T21:23:13.816Z,100517.81
2023-03-21T21:28:19.555Z,100518.88
2023-03-21T21:33:29.125Z,100513.22
2023-03-21T21:38:34.870Z,100508.59
2023-03-21T21:43:40.142Z,100522.84
2023-03-21T21:48:48.059Z,100519.00
2023-03-21T21:53:56.006Z,100514.25
2023-03-21T21:59:01.943Z,100520.41
2023-03-21T22:04:11.203Z,100509.41
2023-03-21T22:09:16.502Z,100511.34
2023-03-21T22:14:21.813Z,100524.38
2023-03-21T22:19:30.035Z,100521.09
2023-03-21T22:24:35.988Z,100516.03
2023-03-21T22:29:41.451Z,100502.34
2023-03-21T22:34:49.315Z,100502.34
2023-03-21T22:39:54.588Z,100509.25
2023-03-21T22:44:59.768Z,100508.47
2023-03-21T22:50:08.883Z,100498.22
2023-03-21T22:55:14.424Z,100499.91
2023-03-21T23:00:21.488Z,100493.78
